Time;durP1;ratioP1;P1;durP2;ratioP2;P2;SDS_P1;SDS_P2;PMS_P1;PMS_P2;Temp;Humidity;BMP_temperature;BMP_pressure;BME280_temperature;BME280_humidity;BME280_pressure;Samples;Min_cycle;Max_cycle;Signal;HPM_P1;HPM_P2
2023/03/27 00:02:10;;;;;;;4.77;2.60;;;;;;;1.32;100.00;99853.63;4847446;29;20079;-82
2023/03/27 00:04:37;;;;;;;4.20;2.40;;;;;;;1.36;100.00;99851.06;4835093;29;20050;-80
2023/03/27 00:07:05;;;;;;;6.70;2.27;;;;;;;1.40;100.00;99844.13;4843295;29;20069;-80
2023/03/27 00:09:33;;;;;;;7.70;1.97;;;;;;;1.44;100.00;99860.63;4848344;29;20053;-80
2023/03/27 00:12:01;;;;;;;4.57;2.30;;;;;;;1.40;100.00;99858.00;4840038;29;20753;-81
2023/03/27 00:14:29;;;;;;;4.53;2.57;;;;;;;1.42;100.00;99860.59;4830468;29;20659;-81
2023/03/27 00:16:58;;;;;;;5.50;1.77;;;;;;;1.24;100.00;99856.19;4832165;29;20060;-80
2023/03/27 00:19:25;;;;;;;7.50;2.07;;;;;;;1.24;100.00;99870.94;4841121;29;20042;-81
2023/03/27 00:21:53;;;;;;;4.60;2.20;;;;;;;1.20;100.00;99871.81;4840098;29;20049;-80
2023/03/27 00:24:21;;;;;;;4.37;2.00;;;;;;;1.23;100.00;99877.88;4841468;29;20050;-80
2023/03/27 00:26:47;;;;;;;4.13;1.77;;;;;;;1.20;100.00;99882.22;4840428;29;20046;-82
2023/03/27 00:29:14;;;;;;;4.53;1.93;;;;;;;1.04;100.00;99889.94;4851329;29;20053;-81
2023/03/27 00:31:40;;;;;;;4.33;2.20;;;;;;;1.07;100.00;99891.69;4839537;29;20060;-82
2023/03/27 00:34:07;;;;;;;6.10;1.93;;;;;;;0.88;100.00;99901.09;4830383;29;20052;-80
2023/03/27 00:36:34;;;;;;;3.43;1.70;;;;;;;0.87;100.00;99901.97;4839178;29;20042;-81
2023/03/27 00:39:00;;;;;;;3.50;1.43;;;;;;;0.86;100.00;99900.22;4855250;29;20044;-80
2023/03/27 00:41:27;;;;;;;2.30;1.70;;;;;;;0.77;100.00;99910.56;4820891;29;20050;-80
2023/03/27 00:43:57;;;;;;;4.70;2.27;;;;;;;0.87;100.00;99914.97;4841198;29;20033;-80
2023/03/27 00:46:43;;;;;;;4.83;1.87;;;;;;;0.74;100.00;99913.13;4841648;29;20052;-81
2023/03/27 00:49:12;;;;;;;4.33;1.40;;;;;;;0.70;100.00;99925.25;4843543;29;20085;-81
2023/03/27 00:51:40;;;;;;;3.00;1.50;;;;;;;0.46;100.00;99925.91;4843971;29;20041;-80
2023/03/27 00:54:08;;;;;;;3.53;1.60;;;;;;;0.55;100.00;99922.53;4842448;29;20522;-80
2023/03/27 00:56:37;;;;;;;5.00;2.17;;;;;;;0.62;100.00;99931.25;4852665;29;20089;-81
2023/03/27 00:59:09;;;;;;;6.83;2.87;;;;;;;0.56;100.00;99930.34;4835782;29;20423;-80
2023/03/27 01:01:37;;;;;;;4.17;2.00;;;;;;;0.54;100.00;99933.78;4855895;29;20407;-80
2023/03/27 01:04:05;;;;;;;2.97;1.40;;;;;;;0.55;100.00;99940.72;4832181;29;20487;-81
2023/03/27 01:06:32;;;;;;;2.10;1.40;;;;;;;0.42;100.00;99933.66;4839840;29;20054;-80
2023/03/27 01:08:58;;;;;;;6.47;1.80;;;;;;;0.32;100.00;99930.13;4814321;29;20053;-80
2023/03/27 01:11:38;;;;;;;6.93;1.80;;;;;;;0.24;100.00;99939.56;4840773;29;20137;-80
2023/03/27 01:14:12;;;;;;;5.17;1.47;;;;;;;0.07;100.00;99939.41;4857367;29;20091;-81
2023/03/27 01:16:43;;;;;;;2.15;1.55;;;;;;;0.20;100.00;99943.00;4852446;29;20130;-80
2023/03/27 01:19:38;;;;;;;3.87;1.50;;;;;;;0.18;100.00;99949.91;4855068;29;20411;-80
2023/03/27 01:22:21;;;;;;;4.50;1.77;;;;;;;0.15;100.00;99948.13;4843547;29;20041;-81
2023/03/27 01:25:21;;;;;;;2.77;1.50;;;;;;;0.05;100.00;99945.44;4858242;29;20484;-79
2023/03/27 01:27:57;;;;;;;4.37;2.27;;;;;;;0.08;100.00;99946.34;4849858;29;20048;-79
2023/03/27 01:30:33;;;;;;;2.27;1.30;;;;;;;0.03;100.00;99952.34;4840548;29;20050;-80
2023/03/27 01:33:20;;;;;;;2.67;1.53;;;;;;;0.01;100.00;99956.66;4839646;29;20041;-81
2023/03/27 01:35:59;;;;;;;4.30;1.47;;;;;;;-0.04;100.00;99960.06;4861916;29;20404;-81
2023/03/27 01:39:04;;;;;;;2.33;1.30;;;;;;;-0.08;100.00;99954.84;4853243;29;20427;-79
2023/03/27 01:41:40;;;;;;;6.00;2.30;;;;;;;-0.09;100.00;99961.72;4854055;29;20049;-81
2023/03/27 01:44:31;;;;;;;2.50;1.13;;;;;;;-0.10;100.00;99975.56;4866033;29;20576;-80
2023/03/27 01:47:21;;;;;;;4.45;1.75;;;;;;;-0.20;100.00;99967.66;4853811;29;20046;-80
2023/03/27 01:50:03;;;;;;;2.17;1.20;;;;;;;-0.30;100.00;99970.16;4851238;29;20101;-80
2023/03/27 01:52:32;;;;;;;3.77;1.40;;;;;;;-0.35;100.00;99977.00;4838792;29;20506;-80
2023/03/27 01:55:03;;;;;;;2.10;1.30;;;;;;;-0.40;100.00;99972.63;4854437;29;20045;-80
2023/03/27 01:57:36;;;;;;;2.10;1.10;;;;;;;-0.46;100.00;99988.09;4870641;29;20042;-80
2023/03/27 02:00:20;;;;;;;2.87;1.17;;;;;;;-0.54;100.00;100000.97;4869573;29;20072;-80
2023/03/27 02:03:08;;;;;;;3.27;1.30;;;;;;;-0.60;100.00;100003.47;4850568;29;20037;-80
2023/03/27 02:05:43;;;;;;;2.53;1.13;;;;;;;-0.70;100.00;100012.84;4866144;29;20050;-80
2023/03/27 02:08:14;;;;;;;3.20;1.17;;;;;;;-0.72;100.00;100018.88;4842876;29;20093;-80
2023/03/27 02:10:44;;;;;;;2.17;1.40;;;;;;;-0.60;100.00;100025.09;4853637;29;20048;-80
2023/03/27 02:13:20;;;;;;;2.30;1.30;;;;;;;-0.73;100.00;100023.19;4867980;29;20684;-80
2023/03/27 02:15:48;;;;;;;1.97;1.33;;;;;;;-0.43;100.00;100024.47;4842405;29;20045;-80
2023/03/27 02:18:25;;;;;;;3.53;1.73;;;;;;;-0.67;100.00;100020.72;4853663;29;20040;-80
2023/03/27 02:20:51;;;;;;;2.53;1.30;;;;;;;-0.65;100.00;100020.72;4837557;29;20080;-80
2023/03/27 02:23:21;;;;;;;2.90;1.80;;;;;;;-0.64;100.00;100019.88;4868439;29;20046;-79
2023/03/27 02:25:48;;;;;;;1.97;1.27;;;;;;;-0.68;100.00;100024.13;4851731;29;20044;-80
2023/03/27 02:28:30;;;;;;;2.17;1.50;;;;;;;-0.60;100.00;100025.09;4867860;29;20049;-79
2023/03/27 02:31:18;;;;;;;2.73;1.40;;;;;;;-0.61;100.00;100036.34;4868139;29;20049;-80
2023/03/27 02:34:33;;;;;;;2.63;1.40;;;;;;;-0.58;100.00;100030.34;4855071;29;20152;-80
2023/03/27 02:37:11;;;;;;;1.70;1.10;;;;;;;-0.70;100.00;100037.94;4837687;29;20050;-80
2023/03/27 02:40:04;;;;;;;2.20;1.33;;;;;;;-0.64;100.00;100036.31;4853039;29;20038;-80
2023/03/27 02:43:13;;;;;;;3.20;1.50;;;;;;;-0.72;100.00;100034.44;4853276;29;20105;-80
2023/03/27 02:45:51;;;;;;;2.33;1.50;;;;;;;-0.71;100.00;100042.25;4838999;29;20085;-80
2023/03/27 02:48:34;;;;;;;3.07;1.90;;;;;;;-0.60;100.00;100045.84;4859123;29;20457;-81
2023/03/27 02:51:06;;;;;;;2.33;1.60;;;;;;;-0.64;100.00;100044.09;4865341;29;20101;-79
2023/03/27 02:53:37;;;;;;;2.30;1.43;;;;;;;-0.64;100.00;100054.47;4954347;23;20180;-77
2023/03/27 02:56:05;;;;;;;3.27;1.37;;;;;;;-0.69;100.00;100053.50;4886362;29;20033;-78
2023/03/27 02:58:48;;;;;;;3.60;1.40;;;;;;;-0.70;100.00;100058.69;4881736;29;20045;-79
2023/03/27 03:01:17;;;;;;;1.73;1.17;;;;;;;-0.69;100.00;100063.88;4863200;29;20073;-78
2023/03/27 03:03:54;;;;;;;2.90;1.20;;;;;;;-0.70;100.00;100071.66;4847893;29;20078;-78
2023/03/27 03:06:28;;;;;;;3.20;1.40;;;;;;;-0.75;100.00;100070.72;4863040;29;20081;-78
2023/03/27 03:09:02;;;;;;;;;;;;;;;-0.96;100.00;100072.09;4879432;29;20045;-78
2023/03/27 03:11:29;;;;;;;3.13;1.00;;;;;;;-0.96;100.00;100076.41;4847261;29;20314;-78
2023/03/27 03:13:56;;;;;;;3.17;1.30;;;;;;;-0.98;100.00;100081.59;4862189;29;20144;-78
2023/03/27 03:16:23;;;;;;;2.13;1.20;;;;;;;-0.92;100.00;100084.28;4845703;29;20610;-78
2023/03/27 03:18:50;;;;;;;1.53;1.20;;;;;;;-1.06;100.00;100087.50;4844244;29;20067;-78
2023/03/27 03:21:17;;;;;;;2.10;1.30;;;;;;;-1.00;100.00;100082.41;4856958;29;20044;-78
2023/03/27 03:23:44;;;;;;;1.80;1.23;;;;;;;-0.94;100.00;100098.91;4877389;29;20037;-78
2023/03/27 03:26:25;;;;;;;1.47;1.20;;;;;;;-1.02;100.00;100095.31;4850963;29;20045;-78
2023/03/27 03:28:52;;;;;;;2.83;1.20;;;;;;;-1.00;100.00;100096.25;4862886;29;20097;-78
2023/03/27 03:31:42;;;;;;;4.73;1.80;;;;;;;-1.00;100.00;100104.03;4845284;29;20045;-78
2023/03/27 03:34:17;;;;;;;2.27;1.50;;;;;;;-1.01;100.00;100104.88;4830493;29;20496;-78
2023/03/27 03:36:47;;;;;;;1.87;1.20;;;;;;;-1.10;100.00;100101.22;4867850;29;20119;-78
2023/03/27 03:39:15;;;;;;;1.73;1.37;;;;;;;-1.19;100.00;100101.94;4877776;29;20047;-78
2023/03/27 03:41:42;;;;;;;2.77;1.53;;;;;;;-1.23;100.00;100113.97;4861924;29;20093;-78
2023/03/27 03:44:09;;;;;;;4.10;2.40;;;;;;;-1.19;100.00;100108.00;4846429;29;20101;-78
2023/03/27 03:46:36;;;;;;;2.30;1.20;;;;;;;-1.15;100.00;100127.09;4846497;29;20048;-78
2023/03/27 03:49:05;;;;;;;1.77;1.10;;;;;;;-1.14;100.00;100118.47;4843135;29;20041;-78
2023/03/27 03:51:34;;;;;;;1.93;1.13;;;;;;;-1.17;100.00;100126.19;4861742;29;20072;-78
2023/03/27 03:54:01;;;;;;;2.37;1.20;;;;;;;-1.13;100.00;100133.16;4845799;29;20174;-78
2023/03/27 03:56:29;;;;;;;2.00;1.30;;;;;;;-1.14;100.00;100134.00;4861601;29;20033;-78
2023/03/27 03:58:56;;;;;;;2.10;1.20;;;;;;;-1.25;100.00;100133.81;4846025;29;20045;-79
2023/03/27 04:01:24;;;;;;;3.37;1.30;;;;;;;-1.33;100.00;100140.56;4874940;29;20041;-80
2023/03/27 04:03:51;;;;;;;2.20;1.00;;;;;;;-1.22;100.00;100146.81;4845630;29;20578;-79
2023/03/27 04:06:24;;;;;;;2.77;1.53;;;;;;;-1.39;100.00;100145.63;4845927;29;20135;-79
2023/03/27 04:08:51;;;;;;;1.83;1.30;;;;;;;-1.24;100.00;100143.34;4859512;29;20037;-79
2023/03/27 04:11:19;;;;;;;2.23;1.30;;;;;;;-1.49;100.00;100151.50;4855284;29;20045;-80
2023/03/27 04:13:45;;;;;;;1.93;1.17;;;;;;;-1.45;100.00;100161.91;4854981;29;20051;-79
2023/03/27 04:16:12;;;;;;;2.33;1.27;;;;;;;-1.38;100.00;100154.28;4845218;29;20045;-80
2023/03/27 04:18:40;;;;;;;3.03;1.13;;;;;;;-1.48;100.00;100163.59;4861761;29;20079;-80
2023/03/27 04:21:14;;;;;;;1.90;1.00;;;;;;;-1.43;100.00;100167.13;4840242;29;20061;-79
2023/03/27 04:23:42;;;;;;;2.95;1.42;;;;;;;-1.71;100.00;100171.75;4857615;29;20275;-80
2023/03/27 04:26:10;;;;;;;2.70;1.20;;;;;;;-1.69;100.00;100171.78;4846992;29;20049;-80
2023/03/27 04:28:38;;;;;;;2.00;1.27;;;;;;;-1.66;100.00;100174.47;4859975;29;20047;-79
2023/03/27 04:31:06;;;;;;;3.30;1.03;;;;;;;-1.68;100.00;100185.59;4860689;29;20460;-79
2023/03/27 04:33:38;;;;;;;1.67;1.40;;;;;;;-1.72;100.00;100189.84;4845206;29;20523;-80
2023/03/27 04:36:06;;;;;;;2.50;1.20;;;;;;;-1.85;100.00;100193.91;4852882;29;20052;-79
2023/03/27 04:38:38;;;;;;;1.90;1.00;;;;;;;-1.83;100.00;100196.53;4874118;29;20033;-80
2023/03/27 04:41:04;;;;;;;2.53;1.00;;;;;;;-1.85;100.00;100195.59;4857849;29;20052;-80
2023/03/27 04:43:35;;;;;;;2.33;1.50;;;;;;;-1.80;100.00;100201.75;4844570;29;20048;-80
2023/03/27 04:46:06;;;;;;;1.53;1.03;;;;;;;-1.94;100.00;100209.22;4862103;29;20570;-80
2023/03/27 04:48:33;;;;;;;3.13;1.73;;;;;;;-2.01;100.00;100202.19;4861651;29;20144;-79
2023/03/27 04:51:00;;;;;;;1.80;1.10;;;;;;;-1.80;100.00;100206.94;4877228;29;20045;-80
2023/03/27 04:53:29;;;;;;;2.57;1.37;;;;;;;-1.87;100.00;100212.81;4853936;29;20045;-79
2023/03/27 04:55:56;;;;;;;2.13;1.10;;;;;;;-1.94;100.00;100209.22;4853290;29;20124;-80
2023/03/27 04:58:24;;;;;;;2.60;1.30;;;;;;;-1.99;100.00;100218.59;4852202;29;20041;-80
2023/03/27 05:00:54;;;;;;;2.60;1.33;;;;;;;-1.94;100.00;100218.69;4850345;29;20399;-80
2023/03/27 05:03:26;;;;;;;2.60;2.03;;;;;;;-1.92;100.00;100217.03;4843246;29;20789;-79
2023/03/27 05:05:53;;;;;;;1.87;1.17;;;;;;;-1.87;100.00;100228.34;4863661;29;20133;-79
2023/03/27 05:08:20;;;;;;;1.73;1.27;;;;;;;-2.00;100.00;100233.28;4850663;29;20057;-79
2023/03/27 05:10:47;;;;;;;2.50;1.43;;;;;;;-1.98;100.00;100234.16;4865345;29;20049;-79
2023/03/27 05:13:14;;;;;;;5.93;3.10;;;;;;;-1.93;100.00;100247.25;4859526;29;20101;-79
2023/03/27 05:15:41;;;;;;;6.60;3.60;;;;;;;-1.96;100.00;100247.16;4847473;29;20061;-79
2023/03/27 05:18:08;;;;;;;5.67;3.50;;;;;;;-1.91;100.00;100244.69;4848165;29;20055;-79
2023/03/27 05:20:35;;;;;;;7.30;4.40;;;;;;;-1.88;100.00;100249.91;4865577;29;20056;-79
2023/03/27 05:23:02;;;;;;;6.10;3.80;;;;;;;-1.98;100.00;100254.00;4844365;29;20060;-79
2023/03/27 05:25:30;;;;;;;5.40;2.80;;;;;;;-2.04;100.00;100261.63;4866250;29;20053;-79
2023/03/27 05:27:59;;;;;;;6.27;3.30;;;;;;;-1.94;100.00;100263.56;4865602;29;20048;-79
2023/03/27 05:30:27;;;;;;;3.93;2.50;;;;;;;-1.92;100.00;100261.06;4849942;29;20078;-79
2023/03/27 05:32:57;;;;;;;3.27;2.03;;;;;;;-1.94;100.00;100266.16;4863992;29;20051;-80
2023/03/27 05:35:27;;;;;;;2.60;1.87;;;;;;;-1.85;100.00;100266.41;4862445;29;20058;-79
2023/03/27 05:37:55;;;;;;;3.47;1.90;;;;;;;-1.88;100.00;100268.91;4860453;29;20049;-79
2023/03/27 05:40:24;;;;;;;2.93;1.93;;;;;;;-1.91;100.00;100271.44;4846620;29;20046;-79
2023/03/27 05:42:52;;;;;;;2.20;1.60;;;;;;;-1.74;100.00;100267.53;4848087;29;20049;-80
2023/03/27 05:45:19;;;;;;;3.73;1.83;;;;;;;-1.80;100.00;100277.72;4850988;29;20049;-80
2023/03/27 05:47:48;;;;;;;2.63;1.67;;;;;;;-1.87;100.00;100285.31;4867769;29;20053;-80
2023/03/27 05:50:15;;;;;;;2.77;1.73;;;;;;;-1.80;100.00;100280.31;4867282;29;20052;-80
2023/03/27 05:52:42;;;;;;;2.60;1.37;;;;;;;-1.71;100.00;100290.00;4862014;29;20057;-80
2023/03/27 05:55:09;;;;;;;4.93;1.50;;;;;;;-1.63;100.00;100293.66;4849070;29;20045;-80
2023/03/27 05:57:38;;;;;;;3.80;1.67;;;;;;;-1.64;100.00;100297.09;4846947;29;20057;-80
2023/03/27 06:00:10;;;;;;;6.23;1.90;;;;;;;-1.63;100.00;100295.38;4862422;29;20077;-80
2023/03/27 06:02:37;;;;;;;3.83;2.20;;;;;;;-1.59;100.00;100295.50;4846705;29;20056;-80
2023/03/27 06:05:11;;;;;;;3.10;1.37;;;;;;;-1.47;100.00;100297.47;4864126;29;20045;-80
2023/03/27 06:07:39;;;;;;;4.95;1.58;;;;;;;-1.46;100.00;100304.38;4871419;29;20128;-80
2023/03/27 06:10:10;;;;;;;1.07;0.93;;;;;;;-1.53;100.00;100297.31;4870426;29;20049;-79
2023/03/27 06:12:40;;;;;;;2.07;1.40;;;;;;;-1.45;100.00;100299.25;4866721;29;20331;-80
2023/03/27 06:15:08;;;;;;;3.20;1.50;;;;;;;-1.23;100.00;100305.78;4853530;29;20073;-80
2023/03/27 06:17:38;;;;;;;2.20;1.37;;;;;;;-1.20;100.00;100310.13;4869503;29;20521;-79
2023/03/27 06:20:11;;;;;;;2.17;1.30;;;;;;;-1.06;100.00;100321.69;4869944;29;20112;-79
2023/03/27 06:22:42;;;;;;;2.73;1.30;;;;;;;-1.00;100.00;100320.94;4883388;29;20076;-80
2023/03/27 06:25:10;;;;;;;2.43;1.40;;;;;;;-0.90;100.00;100325.47;4870862;29;20097;-79
2023/03/27 06:27:38;;;;;;;3.10;1.40;;;;;;;-0.89;100.00;100329.81;4868541;29;20068;-79
2023/03/27 06:30:05;;;;;;;2.77;1.50;;;;;;;-0.73;100.00;100331.88;4854663;29;20051;-80
2023/03/27 06:32:33;;;;;;;2.53;1.37;;;;;;;-0.63;100.00;100331.19;4854290;29;20059;-79
2023/03/27 06:35:01;;;;;;;16.90;1.70;;;;;;;-0.42;100.00;100332.44;4854093;29;20049;-80
2023/03/27 06:37:32;;;;;;;2.73;1.63;;;;;;;-0.43;100.00;100333.28;4879798;29;20065;-80
2023/03/27 06:39:59;;;;;;;2.50;1.40;;;;;;;-0.31;100.00;100331.78;4866532;29;20041;-80
2023/03/27 06:42:26;;;;;;;2.67;1.50;;;;;;;0.07;100.00;100336.75;4871870;29;20069;-80
2023/03/27 06:44:52;;;;;;;2.23;1.27;;;;;;;0.16;100.00;100334.31;4868560;29;20076;-80
2023/03/27 06:47:19;;;;;;;2.23;1.07;;;;;;;0.89;100.00;100347.53;4852124;29;20074;-80
2023/03/27 06:49:47;;;;;;;1.87;1.13;;;;;;;1.57;100.00;100355.31;4868854;29;20041;-80
2023/03/27 06:52:14;;;;;;;2.07;1.30;;;;;;;2.19;100.00;100342.03;4858102;29;20049;-80
2023/03/27 06:54:41;;;;;;;2.03;1.10;;;;;;;2.63;89.30;100341.50;4865392;29;20045;-80
2023/03/27 06:57:08;;;;;;;1.60;1.00;;;;;;;3.42;88.42;100348.84;4851953;29;20045;-80
2023/03/27 06:59:35;;;;;;;4.87;1.00;;;;;;;3.88;83.68;100346.38;4867012;29;20093;-79
2023/03/27 07:02:02;;;;;;;1.70;0.90;;;;;;;4.01;76.60;100362.91;4864429;29;20631;-81
2023/03/27 07:04:29;;;;;;;2.57;0.80;;;;;;;3.86;78.20;100356.78;4855798;29;20105;-79
2023/03/27 07:06:55;;;;;;;1.37;0.90;;;;;;;4.47;80.12;100355.97;4846952;29;20552;-79
2023/03/27 07:09:22;;;;;;;2.13;0.80;;;;;;;5.03;76.16;100355.00;4867248;29;20265;-79
2023/03/27 07:11:49;;;;;;;1.43;1.00;;;;;;;4.84;72.78;100356.78;4850825;29;20053;-79
2023/03/27 07:14:16;;;;;;;2.10;0.90;;;;;;;5.41;73.22;100360.09;4865446;29;20049;-79
2023/03/27 07:16:43;;;;;;;1.23;0.77;;;;;;;5.65;74.96;100364.38;4876328;29;20048;-79
2023/03/27 07:19:10;;;;;;;2.50;1.00;;;;;;;4.94;68.92;100366.34;4848572;29;20171;-79
2023/03/27 07:21:36;;;;;;;4.47;1.20;;;;;;;5.23;66.71;100368.91;4851969;29;20093;-79
2023/03/27 07:24:03;;;;;;;2.23;1.07;;;;;;;4.97;65.21;100374.22;4856416;29;20050;-79
2023/03/27 07:26:32;;;;;;;3.13;0.90;;;;;;;5.04;70.46;100382.91;4851387;29;20049;-79
2023/03/27 07:28:59;;;;;;;1.77;0.83;;;;;;;4.29;64.84;100380.41;4864205;29;20048;-79
2023/03/27 07:31:27;;;;;;;4.47;0.97;;;;;;;4.33;66.48;100381.25;4855504;29;20077;-79
2023/03/27 07:34:14;;;;;;;1.43;0.80;;;;;;;4.02;66.59;100383.81;4856534;29;20173;-79
2023/03/27 07:36:42;;;;;;;1.57;0.87;;;;;;;4.05;70.37;100381.25;4867952;29;20507;-80
2023/03/27 07:39:11;;;;;;;1.10;0.90;;;;;;;3.49;71.17;100386.31;4850581;29;20491;-79
2023/03/27 07:41:38;;;;;;;1.00;0.70;;;;;;;3.30;69.23;100386.22;4851941;29;20073;-79
2023/03/27 07:44:05;;;;;;;2.37;1.00;;;;;;;3.33;73.98;100393.19;4846558;29;20078;-83
2023/03/27 07:46:33;;;;;;;1.37;0.80;;;;;;;3.22;70.83;100387.06;4842827;29;20052;-82
2023/03/27 07:48:59;;;;;;;1.07;0.80;;;;;;;3.24;74.67;100393.16;4844352;29;20515;-81
2023/03/27 07:51:27;;;;;;;1.27;0.83;;;;;;;3.39;69.07;100395.84;4862490;29;20055;-80
2023/03/27 07:53:54;;;;;;;1.17;0.80;;;;;;;3.23;69.38;100404.47;4878681;29;20049;-80
2023/03/27 07:56:22;;;;;;;1.60;0.90;;;;;;;3.64;72.38;100402.03;4862908;29;20047;-79
2023/03/27 07:58:50;;;;;;;1.00;0.87;;;;;;;3.64;67.74;100395.06;4853450;29;20452;-81
2023/03/27 08:01:17;;;;;;;1.10;0.70;;;;;;;3.44;65.46;100388.00;4852325;29;20151;-80
2023/03/27 08:03:45;;;;;;;2.40;0.90;;;;;;;3.52;64.42;100407.19;4847276;29;20432;-80
2023/03/27 08:08:48;;;;;;;1.02;0.80;;;;;;;3.55;62.73;100408.09;4875691;23;20060;-82
2023/03/27 08:11:15;;;;;;;2.47;1.10;;;;;;;3.62;63.12;100406.38;4993363;23;20049;-80
2023/03/27 08:13:57;;;;;;;1.03;0.93;;;;;;;3.78;62.65;100399.44;4857625;29;20048;-80
2023/03/27 08:16:27;;;;;;;2.40;0.70;;;;;;;4.04;67.17;100413.47;4863813;29;20059;-81
2023/03/27 08:18:55;;;;;;;1.50;0.80;;;;;;;4.05;62.00;100416.97;4863798;29;20506;-82
2023/03/27 08:21:22;;;;;;;1.40;0.80;;;;;;;3.85;60.76;100411.66;4877983;29;20037;-80
2023/03/27 08:23:49;;;;;;;1.77;1.10;;;;;;;3.68;60.68;100409.88;4873930;29;20132;-81
2023/03/27 08:26:16;;;;;;;2.17;0.97;;;;;;;3.76;64.61;100407.28;4879751;29;20048;-79
2023/03/27 08:28:43;;;;;;;2.33;0.77;;;;;;;3.98;63.40;100417.81;4845074;29;20173;-80
2023/03/27 08:31:12;;;;;;;1.60;0.83;;;;;;;3.82;60.57;100425.59;4829171;29;20049;-80
2023/03/27 08:33:41;;;;;;;1.00;0.90;;;;;;;3.69;59.23;100426.41;4846051;29;20442;-80
2023/03/27 08:36:10;;;;;;;2.07;1.00;;;;;;;3.47;60.63;100416.78;4881415;29;20065;-80
2023/03/27 08:38:38;;;;;;;2.73;1.00;;;;;;;3.72;60.90;100430.81;4878908;29;20080;-80
2023/03/27 08:41:05;;;;;;;1.33;1.23;;;;;;;4.04;61.68;100430.91;4843769;29;20460;-80
2023/03/27 08:43:41;;;;;;;2.77;0.90;;;;;;;4.15;59.35;100431.78;4838685;29;20291;-81
2023/03/27 08:46:13;;;;;;;0.80;0.73;;;;;;;3.80;54.33;100432.56;4859268;29;20137;-80
2023/03/27 08:48:59;;;;;;;1.07;0.80;;;;;;;3.80;55.58;100448.25;4845354;29;20061;-80
2023/03/27 08:51:31;;;;;;;1.33;0.90;;;;;;;3.71;57.35;100445.59;4829993;29;20046;-80
2023/03/27 08:54:07;;;;;;;34.20;18.33;;;;;;;3.99;57.81;100437.84;4862984;29;20408;-81
2023/03/27 08:56:34;;;;;;;2.97;2.03;;;;;;;4.24;53.81;100443.13;4859538;29;20056;-80
2023/03/27 08:59:00;;;;;;;1.00;0.93;;;;;;;4.31;53.35;100432.69;4875784;29;20076;-80
2023/03/27 09:01:32;;;;;;;0.73;0.70;;;;;;;4.70;54.19;100434.44;4863323;29;20073;-79
2023/03/27 09:04:06;;;;;;;1.37;1.00;;;;;;;4.92;50.88;100422.22;4862464;29;20055;-79
2023/03/27 09:07:14;;;;;;;1.38;0.77;;;;;;;4.92;50.00;100433.56;4842939;29;20049;-80
2023/03/27 09:09:54;;;;;;;0.70;0.70;;;;;;;5.10;48.93;100448.38;4859554;29;20081;-80
2023/03/27 09:12:27;;;;;;;1.33;0.70;;;;;;;5.23;48.51;100444.00;4878313;29;20341;-79
2023/03/27 09:14:59;;;;;;;1.13;0.80;;;;;;;5.44;48.91;100441.28;4880361;29;20129;-80
2023/03/27 09:17:33;;;;;;;1.07;0.80;;;;;;;5.51;48.77;100448.25;4881091;29;20427;-80
2023/03/27 09:20:24;;;;;;;1.48;0.75;;;;;;;5.70;46.29;100438.56;4848344;29;20466;-79
2023/03/27 09:22:57;;;;;;;0.70;0.60;;;;;;;5.62;47.81;100451.72;4851425;29;20479;-81
2023/03/27 09:25:31;;;;;;;1.33;0.70;;;;;;;5.13;48.26;100452.72;4849466;29;20127;-80
2023/03/27 09:27:59;;;;;;;2.05;0.70;;;;;;;5.19;49.80;100458.81;4850631;29;20045;-79
2023/03/27 09:30:32;;;;;;;2.37;1.07;;;;;;;5.02;47.78;100452.75;4878017;29;20051;-80
2023/03/27 09:33:04;;;;;;;1.63;1.00;;;;;;;5.05;46.85;100455.38;4859361;29;20492;-80
2023/03/27 09:35:34;;;;;;;0.90;0.80;;;;;;;5.11;47.37;100459.72;4859695;29;20121;-81
2023/03/27 09:38:05;;;;;;;2.17;0.80;;;;;;;5.69;51.82;100456.94;4830670;29;20046;-80
2023/03/27 09:40:40;;;;;;;1.53;0.90;;;;;;;5.78;46.91;100468.25;4846715;29;20519;-80
2023/03/27 09:43:15;;;;;;;1.70;0.93;;;;;;;5.76;45.51;100471.78;4882558;29;20048;-80
2023/03/27 09:45:42;;;;;;;1.35;0.80;;;;;;;5.89;47.82;100463.00;4869076;29;20045;-80
2023/03/27 09:48:30;;;;;;;2.10;1.23;;;;;;;6.24;46.74;100454.97;4853263;29;20072;-80
2023/03/27 09:50:57;;;;;;;2.87;0.80;;;;;;;6.33;50.11;100467.16;4868048;29;20041;-80
2023/03/27 09:53:26;;;;;;;1.53;0.70;;;;;;;5.98;46.69;100478.72;4853616;29;20076;-80
2023/03/27 09:55:57;;;;;;;1.33;1.03;;;;;;;5.58;45.78;100488.44;4864857;29;20559;-79
2023/03/27 09:58:47;;;;;;;3.77;1.87;;;;;;;5.87;45.64;100480.44;4870213;29;20061;-79
2023/03/27 10:01:34;;;;;;;3.60;2.07;;;;;;;6.38;45.56;100481.09;4900392;29;20125;-79
2023/03/27 10:04:11;;;;;;;15.20;7.97;;;;;;;6.68;45.18;100486.16;4857553;29;20109;-79
2023/03/27 10:06:43;;;;;;;1.50;1.40;;;;;;;6.76;45.57;100486.97;4862461;29;20041;-80
2023/03/27 10:09:25;;;;;;;9.20;8.50;;;;;;;6.61;44.53;100476.56;4859339;29;20041;-79
2023/03/27 10:12:16;;;;;;;2.00;1.80;;;;;;;6.40;44.14;100476.72;4880026;29;20053;-79
2023/03/27 10:14:46;;;;;;;1.27;1.13;;;;;;;6.22;44.19;100480.31;4881440;29;20053;-78
2023/03/27 10:17:25;;;;;;;1.67;1.50;;;;;;;6.24;44.19;100489.06;4874245;29;20335;-79
2023/03/27 10:19:57;;;;;;;1.57;0.80;;;;;;;6.63;45.75;100487.03;4871157;29;20055;-79
2023/03/27 10:22:33;;;;;;;1.83;1.10;;;;;;;6.93;41.91;100493.84;4851070;29;20051;-78
2023/03/27 10:25:03;;;;;;;1.23;0.80;;;;;;;7.06;41.33;100479.69;4850833;29;20102;-78
2023/03/27 10:27:32;;;;;;;1.17;1.00;;;;;;;7.52;44.50;100482.75;4866585;29;20041;-79
2023/03/27 10:29:59;;;;;;;1.70;1.40;;;;;;;7.79;43.32;100478.06;4864367;29;20042;-79
2023/03/27 10:32:44;;;;;;;1.77;0.90;;;;;;;7.70;41.76;100476.41;4882962;29;20037;-79
2023/03/27 10:35:25;;;;;;;;;;;;;;;7.27;40.91;100494.41;4850644;29;20069;-79
2023/03/27 10:37:53;;;;;;;2.07;1.50;;;;;;;6.97;40.55;100498.16;4866536;29;19927;-79
2023/03/27 10:40:25;;;;;;;0.87;0.80;;;;;;;6.64;40.89;100505.44;4870625;29;20048;-79
2023/03/27 10:42:58;;;;;;;0.77;0.70;;;;;;;7.03;40.83;100496.34;4849974;29;20080;-80
2023/03/27 10:45:25;;;;;;;1.60;1.20;;;;;;;7.23;40.79;100511.97;4867641;29;20070;-79
2023/03/27 10:47:54;;;;;;;1.97;1.30;;;;;;;7.48;41.33;100503.81;4849795;29;20081;-79
2023/03/27 10:50:29;;;;;;;1.97;1.23;;;;;;;7.92;43.93;100500.72;4868697;29;20045;-79
2023/03/27 10:53:17;;;;;;;1.40;0.93;;;;;;;7.23;41.36;100508.44;4859778;29;20046;-79
2023/03/27 10:55:59;;;;;;;1.90;0.90;;;;;;;6.86;41.90;100508.75;4851193;29;20053;-78
2023/03/27 10:58:32;;;;;;;0.70;0.60;;;;;;;6.58;42.74;100510.72;4865902;29;20049;-79
2023/03/27 11:01:05;;;;;;;0.80;0.67;;;;;;;6.32;44.13;100505.63;4846672;29;20045;-80
2023/03/27 11:03:58;;;;;;;0.60;0.60;;;;;;;6.12;41.44;100520.59;4859764;29;20053;-79
2023/03/27 11:06:30;;;;;;;1.07;0.70;;;;;;;6.17;40.65;100522.31;4877159;29;20041;-79
2023/03/27 11:09:33;;;;;;;2.90;1.00;;;;;;;6.88;40.51;100516.63;4876675;29;20410;-79
2023/03/27 11:12:03;;;;;;;2.37;1.00;;;;;;;7.15;42.23;100511.16;4891808;29;20117;-79
2023/03/27 11:14:39;;;;;;;0.63;0.57;;;;;;;7.25;42.74;100520.69;4893978;29;20040;-79
2023/03/27 11:17:07;;;;;;;1.03;0.97;;;;;;;7.17;43.03;100513.75;4878292;29;20056;-79
2023/03/27 11:19:55;;;;;;;1.23;0.90;;;;;;;6.39;42.08;100520.47;4895100;29;20041;-79
2023/03/27 11:22:27;;;;;;;0.70;0.70;;;;;;;5.92;44.09;100533.78;4898514;29;20049;-79
2023/03/27 11:25:15;;;;;;;1.90;0.90;;;;;;;6.35;43.86;100536.22;4886678;29;20392;-79
2023/03/27 11:28:04;;;;;;;0.77;0.70;;;;;;;6.27;41.44;100531.00;4878277;29;20057;-80
2023/03/27 11:30:44;;;;;;;0.60;0.60;;;;;;;6.72;42.19;100526.34;4874760;29;20046;-79
2023/03/27 11:33:31;;;;;;;0.63;0.60;;;;;;;6.67;39.44;100520.28;4894386;29;20061;-79
2023/03/27 11:36:23;;;;;;;0.93;0.93;;;;;;;6.61;41.13;100528.19;4889488;29;20041;-79
2023/03/27 11:39:08;;;;;;;1.23;0.80;;;;;;;6.76;40.43;100530.72;4875478;29;20045;-80
2023/03/27 11:41:34;;;;;;;2.40;0.77;;;;;;;7.08;40.96;100527.00;4904145;29;20049;-79
2023/03/27 11:44:01;;;;;;;0.80;0.80;;;;;;;7.10;40.71;100518.19;4864826;29;20064;-80
2023/03/27 11:46:43;;;;;;;1.23;0.77;;;;;;;7.24;40.87;100521.59;4862202;29;20526;-79
2023/03/27 11:49:42;;;;;;;1.10;0.87;;;;;;;7.67;41.11;100520.28;4883568;29;20045;-79
2023/03/27 11:52:30;;;;;;;1.00;0.70;;;;;;;8.33;41.20;100523.84;4865086;29;20203;-79
2023/03/27 11:55:09;;;;;;;1.07;0.77;;;;;;;8.74;38.74;100514.50;4866333;29;20098;-79